Time;durP1;ratioP1;P1;durP2;ratioP2;P2;SDS_P1;SDS_P2;PMS_P1;PMS_P2;Temp;Humidity;BMP_temperature;BMP_pressure;BME280_temperature;BME280_humidity;BME280_pressure;Samples;Min_cycle;Max_cycle;Signal;HPM_P1;HPM_P2
2024/01/01 00:00:38;;;;;;;52.80;24.00;;;7.80;99.90;;;;;;5058864;28;20024;-69
2024/01/01 00:03:03;;;;;;;52.55;24.13;;;7.80;99.90;;;;;;5061128;28;20056;-68
2024/01/01 00:05:29;;;;;;;45.85;20.23;;;7.80;99.90;;;;;;5060822;28;20021;-68
2024/01/01 00:07:56;;;;;;;39.05;17.48;;;7.80;99.90;;;;;;5060260;28;20055;-72
2024/01/01 00:10:21;;;;;;;62.25;28.95;;;7.90;99.90;;;;;;5060311;28;20052;-67
2024/01/01 00:12:47;;;;;;;30.58;14.68;;;8.00;99.90;;;;;;5059951;28;20029;-73
2024/01/01 00:15:13;;;;;;;30.65;13.75;;;7.90;99.90;;;;;;5061797;28;20230;-72
2024/01/01 00:17:39;;;;;;;45.22;15.52;;;8.00;99.90;;;;;;5060418;28;20485;-69
2024/01/01 00:20:06;;;;;;;25.05;9.40;;;8.00;99.90;;;;;;5061479;28;20025;-67
2024/01/01 00:22:31;;;;;;;22.05;10.73;;;8.00;99.90;;;;;;5060495;28;20017;-68
2024/01/01 00:24:58;;;;;;;23.73;8.40;;;8.00;99.90;;;;;;5060834;28;20426;-69
2024/01/01 00:27:24;;;;;;;14.63;5.53;;;8.00;99.90;;;;;;5061272;28;20035;-71
2024/01/01 00:29:50;;;;;;;14.15;4.20;;;8.00;99.90;;;;;;5059884;28;20058;-68
2024/01/01 00:32:18;;;;;;;14.30;5.47;;;8.10;99.90;;;;;;5057432;28;20025;-71
2024/01/01 00:34:46;;;;;;;17.70;6.15;;;8.10;99.90;;;;;;5061319;28;20052;-68
2024/01/01 00:37:12;;;;;;;20.33;7.80;;;8.10;99.90;;;;;;5060366;28;20051;-71
2024/01/01 00:39:38;;;;;;;24.50;8.02;;;8.10;99.90;;;;;;5061076;28;20013;-69
2024/01/01 00:42:04;;;;;;;14.73;6.97;;;8.20;99.90;;;;;;5059525;28;20438;-68
2024/01/01 00:44:32;;;;;;;19.38;6.45;;;8.20;99.90;;;;;;5059358;28;20047;-71
2024/01/01 00:46:58;;;;;;;48.45;22.08;;;8.20;99.90;;;;;;5060746;28;20025;-69
2024/01/01 00:49:23;;;;;;;18.77;7.93;;;8.20;99.90;;;;;;5060740;28;20021;-67
2024/01/01 00:51:49;;;;;;;23.50;9.35;;;8.20;99.90;;;;;;5060947;28;20031;-67
2024/01/01 00:54:15;;;;;;;77.03;34.97;;;8.20;99.90;;;;;;5060323;28;20040;-68
2024/01/01 00:56:40;;;;;;;52.78;23.40;;;8.20;99.90;;;;;;5061204;28;20059;-69
2024/01/01 00:59:07;;;;;;;21.70;8.32;;;8.20;99.90;;;;;;5058815;28;20100;-69
2024/01/01 01:01:32;;;;;;;86.82;42.40;;;8.20;99.90;;;;;;5058444;28;20025;-68
2024/01/01 01:03:58;;;;;;;15.48;6.82;;;8.20;99.90;;;;;;5058666;28;20492;-68
2024/01/01 01:06:23;;;;;;;23.40;8.25;;;8.20;99.90;;;;;;5059973;28;20104;-69
2024/01/01 01:08:49;;;;;;;23.45;9.35;;;8.20;99.90;;;;;;5061050;28;20017;-68
2024/01/01 01:11:14;;;;;;;28.35;12.63;;;8.20;99.90;;;;;;5059022;28;20025;-70
2024/01/01 01:13:40;;;;;;;124.63;61.75;;;8.20;99.90;;;;;;5059607;28;20033;-71
2024/01/01 01:16:06;;;;;;;20.67;7.18;;;8.20;99.90;;;;;;5060939;28;20059;-67
2024/01/01 01:18:31;;;;;;;20.67;9.07;;;8.20;99.90;;;;;;5060346;28;20059;-71
2024/01/01 01:20:57;;;;;;;18.10;6.70;;;8.20;99.90;;;;;;5060372;28;20036;-67
2024/01/01 01:23:23;;;;;;;17.85;7.32;;;8.20;99.90;;;;;;5060321;28;20052;-68
2024/01/01 01:25:49;;;;;;;16.35;6.97;;;8.20;99.90;;;;;;5059771;28;20031;-68
2024/01/01 01:28:22;;;;;;;22.08;8.25;;;8.20;99.90;;;;;;5060090;28;20021;-67
2024/01/01 01:30:47;;;;;;;12.05;5.20;;;8.20;99.90;;;;;;5058890;28;20032;-67
2024/01/01 01:33:13;;;;;;;13.63;5.70;;;8.30;99.90;;;;;;5060225;28;20041;-68
2024/01/01 01:35:39;;;;;;;18.77;5.72;;;8.20;99.90;;;;;;5057521;28;20036;-68
2024/01/01 01:38:04;;;;;;;18.20;7.03;;;8.30;99.90;;;;;;5060286;28;20021;-68
2024/01/01 01:40:30;;;;;;;13.77;5.53;;;8.20;99.90;;;;;;5060420;28;20060;-67
2024/01/01 01:42:55;;;;;;;18.88;7.15;;;8.30;99.90;;;;;;5060595;28;20116;-68
2024/01/01 01:45:22;;;;;;;20.90;7.20;;;8.20;99.90;;;;;;5059540;28;20040;-65
2024/01/01 01:47:48;;;;;;;14.95;6.13;;;8.20;99.90;;;;;;5059679;28;20217;-67
2024/01/01 01:50:15;;;;;;;12.85;5.35;;;8.20;99.90;;;;;;5060499;28;20505;-69
2024/01/01 01:52:43;;;;;;;14.38;6.45;;;8.30;99.90;;;;;;5059565;28;20028;-70
2024/01/01 01:55:11;;;;;;;15.38;5.85;;;8.20;99.90;;;;;;5059069;28;20049;-69
2024/01/01 01:57:38;;;;;;;16.15;6.28;;;8.30;99.90;;;;;;5060546;28;20148;-66
2024/01/01 02:00:05;;;;;;;19.13;6.32;;;8.20;99.90;;;;;;5060125;28;20055;-66
2024/01/01 02:02:35;;;;;;;18.27;6.35;;;8.20;99.90;;;;;;5058699;28;20043;-67
2024/01/01 02:05:04;;;;;;;22.48;7.00;;;8.30;99.90;;;;;;5058657;28;20052;-66
2024/01/01 02:07:30;;;;;;;17.30;6.38;;;8.30;99.90;;;;;;5058870;28;20017;-67
2024/01/01 02:09:56;;;;;;;21.67;7.03;;;8.20;99.90;;;;;;5058657;28;20115;-65
2024/01/01 02:12:21;;;;;;;21.85;8.05;;;8.30;99.90;;;;;;5057033;28;20503;-66
2024/01/01 02:14:48;;;;;;;19.98;7.18;;;8.20;99.90;;;;;;5059574;28;20485;-66
2024/01/01 02:17:15;;;;;;;18.38;7.82;;;8.30;99.90;;;;;;5059793;28;20021;-68
2024/01/01 02:19:41;;;;;;;25.35;6.88;;;8.30;99.90;;;;;;5060183;28;20465;-67
2024/01/01 02:22:07;;;;;;;25.02;8.18;;;8.20;99.90;;;;;;5058866;28;20028;-69
2024/01/01 02:24:33;;;;;;;19.75;7.35;;;8.20;99.90;;;;;;5059655;28;20036;-69
2024/01/01 02:26:58;;;;;;;20.08;7.47;;;8.20;99.90;;;;;;5060208;28;20025;-68
2024/01/01 02:29:24;;;;;;;23.58;8.40;;;8.20;99.90;;;;;;5058453;28;20028;-68
2024/01/01 02:31:50;;;;;;;23.85;6.97;;;8.20;99.90;;;;;;5058091;28;20025;-70
2024/01/01 02:34:17;;;;;;;25.15;7.43;;;8.20;99.90;;;;;;5060002;28;20543;-68
2024/01/01 02:36:43;;;;;;;16.77;7.38;;;8.20;99.90;;;;;;5059897;28;20127;-67
2024/01/01 02:39:12;;;;;;;20.20;7.22;;;8.20;99.90;;;;;;5058482;28;20025;-66
2024/01/01 02:41:39;;;;;;;21.10;8.00;;;8.20;99.90;;;;;;5060013;28;20078;-67
2024/01/01 02:44:05;;;;;;;21.90;7.32;;;8.20;99.90;;;;;;5059931;28;20044;-69
2024/01/01 02:46:31;;;;;;;24.85;7.05;;;8.20;99.90;;;;;;5059195;28;20096;-68
2024/01/01 02:48:56;;;;;;;22.73;8.57;;;8.20;99.90;;;;;;5059723;28;20064;-67
2024/01/01 02:51:22;;;;;;;31.50;7.43;;;8.20;99.90;;;;;;5059351;28;20078;-68
2024/01/01 02:53:47;;;;;;;16.70;6.22;;;8.20;99.90;;;;;;5059594;28;20091;-69
2024/01/01 02:56:17;;;;;;;19.52;6.97;;;8.20;99.90;;;;;;5059382;28;20021;-70
2024/01/01 02:58:44;;;;;;;24.77;8.85;;;8.20;99.90;;;;;;5057823;28;20025;-65
2024/01/01 03:01:09;;;;;;;22.52;7.88;;;8.30;99.90;;;;;;5058648;28;20032;-69
2024/01/01 03:03:35;;;;;;;23.23;8.10;;;8.20;99.90;;;;;;5058147;28;20494;-68
2024/01/01 03:06:00;;;;;;;18.88;7.50;;;8.20;99.90;;;;;;5058074;28;20043;-66
2024/01/01 03:08:26;;;;;;;19.75;7.95;;;8.30;99.90;;;;;;5056860;28;20021;-66
2024/01/01 03:10:52;;;;;;;22.45;8.15;;;8.20;99.90;;;;;;5058320;28;20048;-68
2024/01/01 03:13:17;;;;;;;20.05;7.57;;;8.20;99.90;;;;;;5057663;28;20140;-69
2024/01/01 03:15:43;;;;;;;21.10;7.70;;;8.20;99.90;;;;;;5057208;28;20028;-69
2024/01/01 03:18:11;;;;;;;25.55;8.30;;;8.20;99.90;;;;;;5060386;28;20039;-68
2024/01/01 03:20:37;;;;;;;24.85;7.47;;;8.20;99.90;;;;;;5061695;28;20033;-71
2024/01/01 03:23:03;;;;;;;24.05;8.75;;;8.20;99.90;;;;;;5062015;28;20036;-67
2024/01/01 03:25:29;;;;;;;22.23;8.20;;;8.10;99.90;;;;;;5061736;28;20029;-66
2024/01/01 03:27:55;;;;;;;32.58;9.63;;;8.20;99.90;;;;;;5061468;28;20033;-66
2024/01/01 03:30:21;;;;;;;21.77;8.63;;;8.20;99.90;;;;;;5060451;28;20398;-70
2024/01/01 03:32:47;;;;;;;29.58;11.07;;;8.20;99.90;;;;;;5061243;28;20565;-66
2024/01/01 03:35:13;;;;;;;27.35;11.27;;;8.20;99.90;;;;;;5061376;28;20063;-67
2024/01/01 03:37:39;;;;;;;29.45;12.40;;;8.20;99.90;;;;;;5061564;28;20025;-69
2024/01/01 03:40:06;;;;;;;28.95;12.32;;;8.20;99.90;;;;;;5060434;28;20453;-66
2024/01/01 03:42:32;;;;;;;29.35;12.82;;;8.20;99.90;;;;;;5061062;28;20073;-68
2024/01/01 03:44:57;;;;;;;29.80;14.45;;;8.20;99.90;;;;;;5060194;28;20044;-69
2024/01/01 03:47:23;;;;;;;37.88;14.98;;;8.20;99.90;;;;;;5061270;28;20037;-67
2024/01/01 03:49:48;;;;;;;34.92;15.40;;;8.20;99.90;;;;;;5061617;28;20033;-68
2024/01/01 03:52:14;;;;;;;35.67;16.08;;;8.20;99.90;;;;;;5061556;28;20029;-68
2024/01/01 03:54:40;;;;;;;43.67;16.38;;;8.20;99.90;;;;;;5061200;28;20088;-67
2024/01/01 03:57:06;;;;;;;47.55;18.23;;;8.20;99.90;;;;;;5061095;28;20175;-67
2024/01/01 03:59:31;;;;;;;43.92;16.55;;;8.20;99.90;;;;;;5059960;28;20075;-67
2024/01/01 04:01:57;;;;;;;41.78;16.35;;;8.30;99.90;;;;;;5060809;28;20084;-69
2024/01/01 04:04:22;;;;;;;38.53;16.98;;;8.30;99.90;;;;;;5061269;28;20048;-67
2024/01/01 04:06:48;;;;;;;43.60;17.95;;;8.30;99.90;;;;;;5060990;28;20461;-68
2024/01/01 04:09:14;;;;;;;40.55;19.00;;;8.20;99.90;;;;;;5061123;28;20084;-68
2024/01/01 04:11:39;;;;;;;38.95;18.08;;;8.30;99.90;;;;;;5060646;28;20096;-67
2024/01/01 04:14:05;;;;;;;43.78;17.73;;;8.20;99.90;;;;;;5061971;28;20056;-66
2024/01/01 04:16:30;;;;;;;45.65;18.95;;;8.30;99.90;;;;;;5062181;28;20060;-68
2024/01/01 04:18:57;;;;;;;40.08;18.48;;;8.30;99.90;;;;;;5062098;28;20025;-66
2024/01/01 04:21:23;;;;;;;39.22;17.45;;;8.30;99.90;;;;;;5061737;28;20051;-70
2024/01/01 04:23:48;;;;;;;36.47;14.70;;;8.20;99.90;;;;;;5062317;28;20024;-67
2024/01/01 04:26:14;;;;;;;46.72;17.20;;;8.20;99.90;;;;;;5062465;28;20032;-69
2024/01/01 04:28:41;;;;;;;36.70;17.83;;;8.20;99.90;;;;;;5060554;28;20017;-67
2024/01/01 04:31:06;;;;;;;41.97;17.80;;;8.20;99.90;;;;;;5062484;28;20024;-69
2024/01/01 04:33:32;;;;;;;41.58;17.17;;;8.20;99.90;;;;;;5061483;28;20071;-68
2024/01/01 04:35:58;;;;;;;38.05;16.60;;;8.20;99.90;;;;;;5060343;28;20033;-67
2024/01/01 04:38:23;;;;;;;51.10;17.58;;;8.20;99.90;;;;;;5061515;28;20033;-67
2024/01/01 04:40:49;;;;;;;42.58;18.33;;;8.10;99.90;;;;;;5060303;28;20036;-67
2024/01/01 04:43:14;;;;;;;38.33;16.98;;;8.10;99.90;;;;;;5061921;28;20029;-69
2024/01/01 04:45:40;;;;;;;36.25;16.13;;;8.10;99.90;;;;;;5062369;28;20036;-69
2024/01/01 04:48:06;;;;;;;40.20;16.83;;;8.10;99.90;;;;;;5061408;28;20029;-69
2024/01/01 04:50:32;;;;;;;41.28;15.95;;;8.10;99.90;;;;;;5060280;28;20044;-68
2024/01/01 04:52:58;;;;;;;40.28;16.38;;;8.10;99.90;;;;;;5061668;28;20041;-68
2024/01/01 04:55:24;;;;;;;32.22;14.45;;;8.10;99.90;;;;;;5061416;28;20025;-70
2024/01/01 04:57:49;;;;;;;27.95;13.48;;;8.10;99.90;;;;;;5061185;28;20036;-69
2024/01/01 05:00:15;;;;;;;30.83;13.48;;;8.10;99.90;;;;;;5060200;28;20520;-72
2024/01/01 05:02:41;;;;;;;32.40;13.45;;;8.20;99.90;;;;;;5059789;28;20059;-68
2024/01/01 05:05:10;;;;;;;28.75;12.38;;;8.20;99.90;;;;;;5058731;28;20091;-67
2024/01/01 05:07:36;;;;;;;31.00;11.57;;;8.20;99.90;;;;;;5060305;28;20040;-67
2024/01/01 05:10:05;;;;;;;27.55;10.43;;;8.20;99.90;;;;;;5057980;28;20089;-70
2024/01/01 05:12:31;;;;;;;17.25;6.45;;;8.20;99.90;;;;;;5059795;28;20477;-73
2024/01/01 05:14:56;;;;;;;12.60;5.35;;;8.30;99.90;;;;;;5059667;28;20941;-69
2024/01/01 05:17:23;;;;;;;15.90;4.35;;;8.30;99.90;;;;;;5057916;28;20025;-69
2024/01/01 05:19:50;;;;;;;11.13;4.30;;;8.30;99.90;;;;;;5059658;28;20029;-67
2024/01/01 05:22:16;;;;;;;15.32;3.80;;;8.30;99.90;;;;;;5059134;28;20036;-68
2024/01/01 05:24:42;;;;;;;14.57;4.13;;;8.30;99.90;;;;;;5059794;28;20021;-71
2024/01/01 05:27:08;;;;;;;11.20;4.30;;;8.30;99.90;;;;;;5058839;28;20044;-69
2024/01/01 05:29:34;;;;;;;10.52;3.38;;;8.30;99.90;;;;;;5059010;28;20060;-71
2024/01/01 05:32:00;;;;;;;14.25;3.67;;;8.30;99.90;;;;;;5058675;28;20017;-68
2024/01/01 05:34:25;;;;;;;11.98;3.67;;;8.30;99.90;;;;;;5059281;28;20029;-66
2024/01/01 05:36:51;;;;;;;11.50;3.30;;;8.30;99.90;;;;;;5059117;28;20075;-68
2024/01/01 05:39:16;;;;;;;9.45;2.65;;;8.20;99.90;;;;;;5059181;28;20024;-69
2024/01/01 05:41:42;;;;;;;13.85;3.42;;;8.20;99.90;;;;;;5057782;28;20017;-68
2024/01/01 05:44:07;;;;;;;8.60;3.05;;;8.20;99.90;;;;;;5057102;28;20043;-67
2024/01/01 05:46:33;;;;;;;11.65;3.58;;;8.20;99.90;;;;;;5058528;28;20037;-68
2024/01/01 05:48:59;;;;;;;14.15;4.35;;;8.20;99.90;;;;;;5058773;28;20025;-69
2024/01/01 05:51:25;;;;;;;14.80;5.13;;;8.00;99.90;;;;;;5056589;28;20389;-68
2024/01/01 05:53:50;;;;;;;11.90;4.85;;;8.10;99.90;;;;;;5058522;28;20048;-72
2024/01/01 05:56:16;;;;;;;16.65;5.93;;;8.10;99.90;;;;;;5057583;28;20029;-73
2024/01/01 05:58:42;;;;;;;11.85;5.03;;;8.00;99.90;;;;;;5058705;28;20037;-71
2024/01/01 06:01:07;;;;;;;18.95;5.45;;;8.00;99.90;;;;;;5056895;28;20116;-67
2024/01/01 06:03:33;;;;;;;18.73;5.88;;;8.00;99.90;;;;;;5057648;28;20650;-68
2024/01/01 06:05:59;;;;;;;14.68;6.80;;;8.00;99.90;;;;;;5057110;28;20044;-70
2024/01/01 06:08:25;;;;;;;13.15;5.95;;;8.00;99.90;;;;;;5057561;28;20032;-69
2024/01/01 06:10:51;;;;;;;14.10;5.93;;;8.00;99.90;;;;;;5058709;28;20017;-71
2024/01/01 06:13:17;;;;;;;19.92;5.88;;;7.80;99.90;;;;;;5056778;28;20559;-70
2024/01/01 06:15:43;;;;;;;18.00;5.10;;;7.90;99.90;;;;;;5057945;28;20033;-67
2024/01/01 06:18:10;;;;;;;14.30;5.05;;;7.70;99.90;;;;;;5057944;28;20031;-73
2024/01/01 06:20:45;;;;;;;20.98;6.07;;;7.70;99.90;;;;;;5053751;28;20401;-69
2024/01/01 06:23:11;;;;;;;14.70;5.43;;;7.60;99.90;;;;;;5054673;28;20056;-66
2024/01/01 06:25:37;;;;;;;11.48;4.35;;;7.60;99.90;;;;;;5054579;28;20041;-73
2024/01/01 06:28:03;;;;;;;17.60;5.82;;;7.50;99.90;;;;;;5057867;28;20124;-67
2024/01/01 06:30:30;;;;;;;14.18;5.47;;;7.50;99.90;;;;;;5058225;28;20036;-68
2024/01/01 06:32:56;;;;;;;17.73;6.22;;;7.40;99.90;;;;;;5057886;28;20029;-69
2024/01/01 06:35:21;;;;;;;21.17;6.03;;;7.40;99.90;;;;;;5056732;28;20540;-71
2024/01/01 06:37:47;;;;;;;13.18;5.40;;;7.30;99.90;;;;;;5058014;28;20040;-69
2024/01/01 06:40:12;;;;;;;18.40;6.10;;;7.30;99.90;;;;;;5059098;28;20021;-69
2024/01/01 06:42:38;;;;;;;22.98;6.57;;;7.20;99.90;;;;;;5059736;28;20048;-68
2024/01/01 06:45:07;;;;;;;13.50;5.03;;;7.20;99.90;;;;;;5057951;28;20036;-68
2024/01/01 06:47:33;;;;;;;15.98;5.95;;;7.10;99.90;;;;;;5057542;28;20025;-65
2024/01/01 06:49:58;;;;;;;16.05;5.28;;;7.10;99.90;;;;;;5057833;28;20060;-68
2024/01/01 06:52:27;;;;;;;15.85;5.93;;;7.00;99.90;;;;;;5062455;28;21328;-67
2024/01/01 06:54:52;;;;;;;11.50;5.32;;;7.00;99.90;;;;;;5060521;28;20029;-71
2024/01/01 06:57:18;;;;;;;16.88;6.07;;;7.00;99.90;;;;;;5061732;28;20048;-69
2024/01/01 06:59:44;;;;;;;17.92;5.72;;;6.90;99.90;;;;;;5060608;28;20044;-74
2024/01/01 07:02:10;;;;;;;16.25;6.20;;;6.90;99.90;;;;;;5062105;28;20028;-70
2024/01/01 07:04:35;;;;;;;19.88;6.47;;;6.90;99.90;;;;;;5061096;28;20025;-66
2024/01/01 07:07:01;;;;;;;16.23;6.72;;;6.90;99.90;;;;;;5060813;28;20356;-67
2024/01/01 07:09:27;;;;;;;16.70;5.70;;;6.90;99.90;;;;;;5063320;28;20032;-69
2024/01/01 07:11:56;;;;;;;14.43;5.50;;;6.90;99.90;;;;;;5061097;28;20037;-69
2024/01/01 07:14:21;;;;;;;16.67;5.70;;;6.80;99.90;;;;;;5060357;28;20041;-72
2024/01/01 07:16:47;;;;;;;20.13;5.90;;;6.80;99.90;;;;;;5063484;28;20025;-70
2024/01/01 07:19:12;;;;;;;22.25;6.55;;;6.80;99.90;;;;;;5063420;28;20048;-68
2024/01/01 07:21:39;;;;;;;23.85;6.50;;;6.70;99.90;;;;;;5062656;28;20025;-71
2024/01/01 07:24:05;;;;;;;14.43;4.97;;;6.70;99.90;;;;;;5061266;28;20032;-69
2024/01/01 07:26:30;;;;;;;19.52;5.57;;;6.70;99.90;;;;;;5062186;28;20074;-68
2024/01/01 07:28:57;;;;;;;20.52;6.30;;;6.70;99.90;;;;;;5059880;28;20021;-69
2024/01/01 07:31:22;;;;;;;13.57;5.45;;;6.60;99.90;;;;;;5059575;28;20025;-67
2024/01/01 07:33:48;;;;;;;28.00;6.32;;;6.60;99.90;;;;;;5051671;28;20064;-68
2024/01/01 07:36:14;;;;;;;25.65;6.35;;;6.60;99.90;;;;;;5059985;28;20024;-69
2024/01/01 07:38:41;;;;;;;18.55;5.85;;;6.60;99.90;;;;;;5061276;28;20057;-70
2024/01/01 07:41:07;;;;;;;18.63;6.40;;;6.60;99.90;;;;;;5060860;28;20028;-69
2024/01/01 07:43:32;;;;;;;26.80;6.53;;;6.60;99.90;;;;;;5058895;28;20033;-69
2024/01/01 07:45:58;;;;;;;25.58;6.60;;;6.60;99.90;;;;;;5062052;28;20021;-69
2024/01/01 07:48:23;;;;;;;19.58;6.75;;;6.60;99.90;;;;;;5062197;28;20013;-67
2024/01/01 07:50:49;;;;;;;23.40;6.75;;;6.60;99.90;;;;;;5057302;28;20037;-70
2024/01/01 07:53:15;;;;;;;24.70;6.80;;;6.60;99.90;;;;;;5061542;28;20083;-70
2024/01/01 07:55:41;;;;;;;14.93;5.30;;;6.60;99.90;;;;;;5054080;28;20021;-69
2024/01/01 07:58:06;;;;;;;24.77;6.38;;;6.50;99.90;;;;;;5060442;28;20024;-68
2024/01/01 08:00:32;;;;;;;21.63;6.47;;;6.50;99.90;;;;;;5059639;28;20013;-70
2024/01/01 08:02:58;;;;;;;24.90;7.47;;;6.60;99.90;;;;;;5059845;28;20045;-69
2024/01/01 08:05:24;;;;;;;28.45;7.25;;;6.60;99.90;;;;;;5059140;28;20021;-67
2024/01/01 08:07:49;;;;;;;31.95;7.50;;;6.60;99.90;;;;;;5057425;28;20021;-67
2024/01/01 08:10:15;;;;;;;33.47;8.40;;;6.60;99.90;;;;;;5057401;28;20029;-68
2024/01/01 08:12:41;;;;;;;27.07;8.00;;;6.60;99.90;;;;;;5062344;28;20099;-66
2024/01/01 08:15:07;;;;;;;35.38;8.18;;;6.60;99.90;;;;;;5059662;28;20021;-67
2024/01/01 08:17:33;;;;;;;32.63;7.07;;;6.60;99.90;;;;;;5059029;28;20075;-68
2024/01/01 08:19:58;;;;;;;37.25;7.88;;;6.60;99.90;;;;;;5057842;28;20051;-68
2024/01/01 08:22:24;;;;;;;25.73;7.40;;;6.50;99.90;;;;;;5056395;28;20082;-70
2024/01/01 08:24:50;;;;;;;20.95;6.85;;;6.50;99.90;;;;;;5058546;28;20085;-67
2024/01/01 08:27:15;;;;;;;37.00;8.02;;;6.50;99.90;;;;;;5058186;28;20138;-67
2024/01/01 08:29:41;;;;;;;26.30;7.40;;;6.50;99.90;;;;;;5058001;28;20029;-69
2024/01/01 08:32:07;;;;;;;21.95;7.68;;;6.50;99.90;;;;;;5060868;28;20017;-67
2024/01/01 08:34:33;;;;;;;27.20;7.43;;;6.50;99.90;;;;;;5061899;28;20079;-69
2024/01/01 08:36:59;;;;;;;28.08;7.13;;;6.50;99.90;;;;;;5059897;28;20024;-69
2024/01/01 08:39:25;;;;;;;18.45;5.97;;;6.50;99.90;;;;;;5061103;28;20036;-68
2024/01/01 08:41:50;;;;;;;30.17;6.50;;;6.50;99.90;;;;;;5061351;28;20029;-68
2024/01/01 08:44:16;;;;;;;19.83;6.93;;;6.50;99.90;;;;;;5057271;28;20410;-67
2024/01/01 08:46:42;;;;;;;30.75;6.47;;;6.50;99.90;;;;;;5054899;28;20174;-68
2024/01/01 08:49:07;;;;;;;26.88;6.65;;;6.50;99.90;;;;;;5058006;28;20029;-69
2024/01/01 08:51:34;;;;;;;30.25;7.03;;;6.50;99.90;;;;;;5056583;28;20025;-68
2024/01/01 08:54:01;;;;;;;35.20;7.32;;;6.50;99.90;;;;;;5058265;28;20040;-66
2024/01/01 08:56:27;;;;;;;25.00;6.57;;;6.50;99.90;;;;;;5055436;28;20218;-67
2024/01/01 08:58:52;;;;;;;39.97;8.05;;;6.50;99.90;;;;;;5055524;28;20075;-66
2024/01/01 09:01:18;;;;;;;37.80;7.13;;;6.60;99.90;;;;;;5056302;28;20021;-68
2024/01/01 09:03:44;;;;;;;33.78;6.72;;;6.60;99.90;;;;;;5060725;28;20052;-69
2024/01/01 09:06:10;;;;;;;30.80;7.13;;;6.60;99.90;;;;;;5054929;28;20424;-67
2024/01/01 09:08:36;;;;;;;29.20;6.25;;;6.60;99.90;;;;;;5060123;28;20021;-67
2024/01/01 09:11:02;;;;;;;25.83;6.00;;;6.60;99.90;;;;;;5055458;28;20035;-70
2024/01/01 09:13:28;;;;;;;33.53;6.50;;;6.60;99.90;;;;;;5050013;28;20072;-69
2024/01/01 09:15:53;;;;;;;29.38;6.03;;;6.60;99.90;;;;;;5057700;28;20033;-68
2024/01/01 09:18:19;;;;;;;26.98;6.50;;;6.70;99.90;;;;;;5058776;28;20037;-66
2024/01/01 09:20:45;;;;;;;21.02;5.60;;;6.70;99.90;;;;;;5059512;28;20033;-70
2024/01/01 09:23:10;;;;;;;31.60;6.43;;;6.70;99.90;;;;;;5056055;28;20017;-70
2024/01/01 09:25:40;;;;;;;29.33;6.47;;;6.60;99.90;;;;;;5055245;28;20025;-69
2024/01/01 09:28:06;;;;;;;28.58;5.18;;;6.80;99.90;;;;;;5060581;28;20096;-69
2024/01/01 09:30:31;;;;;;;32.53;5.60;;;6.80;99.90;;;;;;5060736;28;20036;-67
2024/01/01 09:32:57;;;;;;;31.40;5.78;;;6.80;99.90;;;;;;5056030;28;20233;-68
2024/01/01 09:35:23;;;;;;;28.52;5.63;;;6.80;99.90;;;;;;5060871;28;20101;-67
2024/01/01 09:37:52;;;;;;;31.42;7.13;;;6.80;99.90;;;;;;5051777;28;20049;-65
2024/01/01 09:40:19;;;;;;;29.58;6.25;;;6.80;99.90;;;;;;5053030;28;20024;-68
2024/01/01 09:42:47;;;;;;;24.40;5.13;;;6.80;99.90;;;;;;5052246;28;20029;-68
2024/01/01 09:45:12;;;;;;;27.77;5.65;;;6.80;99.90;;;;;;5058092;28;20029;-68
2024/01/01 09:47:40;;;;;;;27.17;5.45;;;6.90;99.90;;;;;;5052075;28;20520;-68
2024/01/01 09:50:06;;;;;;;23.33;5.57;;;7.00;99.90;;;;;;5059326;28;20804;-66
2024/01/01 09:52:32;;;;;;;27.10;6.97;;;7.00;99.90;;;;;;5057658;28;20047;-65
2024/01/01 09:54:58;;;;;;;31.70;7.47;;;7.00;99.90;;;;;;5056385;28;20032;-66
2024/01/01 09:57:24;;;;;;;40.60;8.30;;;7.10;99.90;;;;;;5054835;28;20021;-67
2024/01/01 09:59:50;;;;;;;21.92;4.82;;;7.10;99.90;;;;;;5055808;28;21052;-72
2024/01/01 10:02:16;;;;;;;30.13;6.05;;;7.10;99.90;;;;;;5057592;28;20035;-69
2024/01/01 10:04:42;;;;;;;31.52;7.53;;;7.10;99.90;;;;;;5059303;28;20080;-71
2024/01/01 10:07:08;;;;;;;37.25;7.72;;;7.10;99.90;;;;;;5057094;28;20047;-69
2024/01/01 10:09:47;;;;;;;31.38;7.72;;;7.10;99.90;;;;;;5058432;28;20052;-68
2024/01/01 10:12:12;;;;;;;28.27;6.28;;;7.10;99.90;;;;;;5058801;28;20065;-69
2024/01/01 10:14:46;;;;;;;21.40;6.13;;;7.10;99.90;;;;;;5057036;28;20056;-68
2024/01/01 10:17:13;;;;;;;34.90;7.22;;;7.20;99.90;;;;;;5058083;28;20266;-67
2024/01/01 10:19:50;;;;;;;25.25;6.35;;;7.20;99.90;;;;;;5056984;28;20047;-66
2024/01/01 10:22:18;;;;;;;24.90;6.35;;;7.20;99.90;;;;;;5054126;28;20385;-68
2024/01/01 10:24:45;;;;;;;18.65;5.95;;;7.30;99.90;;;;;;5052491;28;20025;-67
2024/01/01 10:27:15;;;;;;;27.52;6.50;;;7.30;99.90;;;;;;5047521;28;20033;-68
2024/01/01 10:29:40;;;;;;;23.08;6.32;;;7.40;99.90;;;;;;5054502;28;20035;-68
2024/01/01 10:32:07;;;;;;;28.98;6.88;;;7.40;99.90;;;;;;5058750;28;20068;-65
2024/01/01 10:34:35;;;;;;;25.02;5.38;;;7.40;99.90;;;;;;5053274;28;20188;-65
2024/01/01 10:37:01;;;;;;;20.10;4.82;;;7.40;99.90;;;;;;5055208;28;20048;-67
2024/01/01 10:39:30;;;;;;;23.45;5.53;;;7.50;99.90;;;;;;5058302;28;20095;-67
2024/01/01 10:41:55;;;;;;;21.95;5.25;;;7.50;99.90;;;;;;5058109;28;20071;-68
2024/01/01 10:44:21;;;;;;;16.13;4.65;;;7.60;99.90;;;;;;5053935;28;20041;-68
2024/01/01 10:46:47;;;;;;;22.35;4.80;;;7.60;99.90;;;;;;5057601;28;20032;-69
2024/01/01 10:49:20;;;;;;;12.73;4.90;;;7.70;99.90;;;;;;5058110;28;20056;-72
2024/01/01 10:52:12;;;;;;;16.40;4.78;;;7.80;99.90;;;;;;5058191;28;20058;-68
2024/01/01 10:55:05;;;;;;;11.32;3.30;;;7.90;99.90;;;;;;5057684;28;20044;-69
2024/01/01 10:57:59;;;;;;;17.27;4.03;;;8.00;99.90;;;;;;5055975;28;20040;-68
2024/01/01 11:00:47;;;;;;;18.58;4.35;;;8.00;99.90;;;;;;5053981;28;20033;-71
2024/01/01 11:03:15;;;;;;;8.30;2.78;;;8.00;99.90;;;;;;5056422;28;20144;-72
2024/01/01 11:05:41;;;;;;;7.85;2.55;;;8.10;99.90;;;;;;5057677;28;20017;-69
2024/01/01 11:08:07;;;;;;;17.38;3.83;;;8.00;99.90;;;;;;5056045;28;20028;-68
2024/01/01 11:10:44;;;;;;;18.58;2.80;;;8.00;99.90;;;;;;5056985;28;20021;-69
2024/01/01 11:13:25;;;;;;;13.27;3.17;;;8.00;99.90;;;;;;5055171;28;20045;-69
2024/01/01 11:15:57;;;;;;;11.30;2.72;;;8.00;99.90;;;;;;5057048;28;20037;-67
2024/01/01 11:18:27;;;;;;;12.70;2.75;;;8.00;99.90;;;;;;5056623;28;20494;-67
2024/01/01 11:21:06;;;;;;;9.88;2.78;;;7.90;99.90;;;;;;5058022;28;20029;-67
2024/01/01 11:23:41;;;;;;;14.38;2.95;;;8.00;99.90;;;;;;5054771;28;20037;-66
2024/01/01 11:26:32;;;;;;;13.57;2.85;;;7.90;99.90;;;;;;5056122;28;20045;-69
2024/01/01 11:29:00;;;;;;;12.30;3.40;;;8.00;99.90;;;;;;5057925;28;20108;-68
2024/01/01 11:31:27;;;;;;;12.73;3.35;;;7.90;99.90;;;;;;5057727;28;20418;-70
2024/01/01 11:34:21;;;;;;;14.15;3.72;;;7.90;99.90;;;;;;5054212;28;20091;-67
2024/01/01 11:36:47;;;;;;;10.23;3.28;;;8.00;99.90;;;;;;5046818;28;20045;-73
2024/01/01 11:39:13;;;;;;;12.30;2.83;;;8.00;99.90;;;;;;5060455;28;20104;-71
2024/01/01 11:41:39;;;;;;;14.45;3.90;;;8.00;99.90;;;;;;5061880;28;20072;-68
2024/01/01 11:44:09;;;;;;;13.07;3.60;;;8.00;99.90;;;;;;5061403;28;20394;-67
2024/01/01 11:46:35;;;;;;;11.75;3.92;;;8.00;99.90;;;;;;5058111;28;20037;-67
2024/01/01 11:49:01;;;;;;;10.15;3.10;;;8.00;99.90;;;;;;5061223;28;20497;-67
2024/01/01 11:51:30;;;;;;;14.85;3.55;;;8.00;99.90;;;;;;5059649;28;20044;-67
2024/01/01 11:54:05;;;;;;;9.20;3.30;;;8.00;99.90;;;;;;5060877;28;20077;-68
2024/01/01 11:56:32;;;;;;;23.75;5.35;;;8.00;99.90;;;;;;5061126;28;20029;-68
2024/01/01 11:58:58;;;;;;;13.35;3.58;;;8.00;99.90;;;;;;5060791;28;20029;-69
2024/01/01 12:01:23;;;;;;;10.10;3.13;;;8.00;99.90;;;;;;5059564;28;20032;-67
2024/01/01 12:03:50;;;;;;;20.52;6.32;;;8.00;99.90;;;;;;5060957;28;20123;-68
2024/01/01 12:06:16;;;;;;;14.98;5.57;;;8.00;99.90;;;;;;5059990;28;20021;-68
2024/01/01 12:08:42;;;;;;;10.18;3.42;;;8.10;99.90;;;;;;5060388;28;20025;-66
2024/01/01 12:11:07;;;;;;;9.70;3.58;;;8.10;99.90;;;;;;5059589;28;20039;-69
2024/01/01 12:13:33;;;;;;;14.38;3.30;;;8.10;99.90;;;;;;5059967;28;20045;-70
2024/01/01 12:16:18;;;;;;;10.27;4.00;;;8.10;99.90;;;;;;5057899;28;20063;-69
2024/01/01 12:18:46;;;;;;;11.60;3.70;;;8.10;99.90;;;;;;5060876;28;20127;-69
2024/01/01 12:21:12;;;;;;;12.88;3.28;;;8.10;99.90;;;;;;5059595;28;20037;-69
2024/01/01 12:23:38;;;;;;;11.15;3.75;;;8.10;99.90;;;;;;5060433;28;20477;-71
2024/01/01 12:26:04;;;;;;;12.63;3.70;;;8.10;99.90;;;;;;5060754;28;20048;-67
2024/01/01 12:28:29;;;;;;;13.02;3.55;;;8.10;99.90;;;;;;5059879;28;20131;-69
2024/01/01 12:30:55;;;;;;;14.93;3.80;;;8.00;99.90;;;;;;5060900;28;20079;-67
2024/01/01 12:33:21;;;;;;;12.73;3.85;;;8.00;99.90;;;;;;5060381;28;20048;-66
2024/01/01 12:35:46;;;;;;;14.77;4.35;;;8.00;99.90;;;;;;5060413;28;20106;-68
2024/01/01 12:38:12;;;;;;;12.35;3.85;;;8.00;99.90;;;;;;5060678;28;20073;-69
2024/01/01 12:40:39;;;;;;;12.40;3.30;;;8.00;99.90;;;;;;5060814;28;20029;-68
2024/01/01 12:43:05;;;;;;;16.63;3.85;;;8.00;99.90;;;;;;5060288;28;20048;-68